Time;durP1;ratioP1;P1;durP2;ratioP2;P2;SDS_P1;SDS_P2;PMS_P1;PMS_P2;Temp;Humidity;BMP_temperature;BMP_pressure;BME280_temperature;BME280_humidity;BME280_pressure;Samples;Min_cycle;Max_cycle;Signal;HPM_P1;HPM_P2
2022/04/03 00:02:47;;;;;;;20.10;15.10;;;;;;;;;;4972743;28;20551;-83
2022/04/03 00:05:51;;;;;;;17.83;13.60;;;;;;;;;;4984456;28;20940;-83
2022/04/03 00:08:56;;;;;;;25.13;15.33;;;;;;;;;;4984608;28;20534;-83
2022/04/03 00:12:03;;;;;;;23.93;16.13;;;;;;;;;;4984419;28;20613;-83
2022/04/03 00:15:08;;;;;;;20.27;14.97;;;;;;;;;;4983719;28;20537;-83
2022/04/03 00:18:12;;;;;;;21.17;15.60;;;;;;;;;;4972692;28;20534;-84
2022/04/03 00:21:17;;;;;;;21.63;15.50;;;;;;;;;;4983401;28;20617;-83
2022/04/03 00:24:21;;;;;;;29.37;19.43;;;;;;;;;;4982955;28;20601;-83
2022/04/03 00:27:26;;;;;;;25.23;17.07;;;;;;;;;;4972349;28;20649;-83
2022/04/03 00:30:30;;;;;;;23.50;16.80;;;;;;;;;;4983451;28;20624;-83
2022/04/03 00:33:34;;;;;;;25.83;17.03;;;;;;;;;;4983190;28;20538;-83
2022/04/03 00:36:37;;;;;;;24.57;17.30;;;;;;;;;;4972463;28;20562;-83
2022/04/03 00:39:42;;;;;;;19.43;15.30;;;;;;;;;;4994473;28;20904;-82
2022/04/03 00:42:46;;;;;;;22.27;14.83;;;;;;;;;;4972427;28;20538;-83
2022/04/03 00:45:52;;;;;;;19.90;14.47;;;;;;;;;;4983427;28;20542;-83
2022/04/03 00:48:59;;;;;;;21.37;14.70;;;;;;;;;;4971949;28;20989;-83
2022/04/03 00:52:04;;;;;;;16.73;13.73;;;;;;;;;;4972575;28;20608;-82
2022/04/03 00:55:10;;;;;;;18.53;13.93;;;;;;;;;;4994492;28;20545;-82
2022/04/03 00:58:15;;;;;;;20.20;14.33;;;;;;;;;;4994882;28;21132;-83
2022/04/03 01:01:20;;;;;;;18.87;13.00;;;;;;;;;;4994591;28;20632;-83
2022/04/03 01:04:24;;;;;;;16.60;13.77;;;;;;;;;;4983349;28;20546;-82
2022/04/03 01:07:29;;;;;;;14.50;11.97;;;;;;;;;;4972146;28;20601;-82
2022/04/03 01:10:33;;;;;;;19.83;13.50;;;;;;;;;;4983142;28;20632;-84
2022/04/03 01:13:45;;;;;;;17.93;13.13;;;;;;;;;;4982895;28;20612;-83
2022/04/03 01:16:49;;;;;;;17.83;13.60;;;;;;;;;;4982733;28;20546;-84
2022/04/03 01:19:53;;;;;;;16.87;13.07;;;;;;;;;;4972469;28;20562;-83
2022/04/03 01:22:57;;;;;;;17.87;13.33;;;;;;;;;;4982561;28;20558;-84
2022/04/03 01:26:03;;;;;;;15.97;12.43;;;;;;;;;;4983439;28;20605;-84
2022/04/03 01:29:07;;;;;;;17.43;12.97;;;;;;;;;;4983348;28;20976;-83
2022/04/03 01:32:11;;;;;;;15.97;12.57;;;;;;;;;;4994713;28;20870;-83
2022/04/03 01:35:15;;;;;;;18.17;12.87;;;;;;;;;;4982971;28;21072;-83
2022/04/03 01:38:19;;;;;;;16.97;13.40;;;;;;;;;;4998091;28;20542;-84
2022/04/03 01:41:23;;;;;;;18.00;12.37;;;;;;;;;;4987167;28;20628;-84
2022/04/03 01:44:28;;;;;;;18.07;12.80;;;;;;;;;;4997597;28;20558;-83
2022/04/03 01:47:32;;;;;;;17.90;12.67;;;;;;;;;;4986634;28;20597;-83
2022/04/03 01:50:36;;;;;;;16.37;12.53;;;;;;;;;;4997994;28;20628;-83
2022/04/03 01:53:41;;;;;;;16.73;12.10;;;;;;;;;;4986560;28;21079;-83
2022/04/03 01:56:45;;;;;;;16.87;12.80;;;;;;;;;;4975385;28;20534;-83
2022/04/03 01:59:49;;;;;;;15.87;12.77;;;;;;;;;;4974897;28;20554;-83
2022/04/03 02:02:53;;;;;;;18.17;12.07;;;;;;;;;;4975431;28;20550;-83
2022/04/03 02:05:57;;;;;;;17.90;12.97;;;;;;;;;;4975932;28;20550;-83
2022/04/03 02:09:04;;;;;;;17.60;12.43;;;;;;;;;;4975649;28;20609;-83
2022/04/03 02:12:09;;;;;;;15.77;12.00;;;;;;;;;;4986686;28;20546;-83
2022/04/03 02:15:15;;;;;;;17.53;12.93;;;;;;;;;;4975502;28;20545;-83
2022/04/03 02:18:19;;;;;;;15.13;11.73;;;;;;;;;;4986543;28;20538;-83
2022/04/03 02:21:23;;;;;;;16.73;12.83;;;;;;;;;;4997014;28;20620;-83
2022/04/03 02:24:28;;;;;;;15.87;11.63;;;;;;;;;;4985813;28;20545;-83
2022/04/03 02:27:32;;;;;;;14.97;11.67;;;;;;;;;;4986375;28;20593;-83
2022/04/03 02:30:36;;;;;;;19.07;12.23;;;;;;;;;;4975468;28;21207;-83
2022/04/03 02:33:40;;;;;;;16.00;11.23;;;;;;;;;;4986369;28;20546;-83
2022/04/03 02:36:44;;;;;;;14.33;10.73;;;;;;;;;;4974746;28;21068;-83
2022/04/03 02:39:49;;;;;;;14.87;11.27;;;;;;;;;;4996950;28;20899;-83
2022/04/03 02:42:53;;;;;;;17.63;11.73;;;;;;;;;;4985871;28;21100;-83
2022/04/03 02:45:57;;;;;;;14.23;10.87;;;;;;;;;;4985735;28;20553;-83
2022/04/03 02:49:01;;;;;;;13.97;10.30;;;;;;;;;;4985999;28;20623;-83
2022/04/03 02:52:05;;;;;;;12.40;9.90;;;;;;;;;;4974487;28;20565;-83
2022/04/03 02:55:11;;;;;;;13.77;10.93;;;;;;;;;;4985749;28;20601;-83
2022/04/03 02:58:15;;;;;;;13.33;10.57;;;;;;;;;;4974359;28;20640;-83
2022/04/03 03:01:20;;;;;;;12.60;10.33;;;;;;;;;;4974377;28;20624;-83
2022/04/03 03:04:24;;;;;;;13.70;10.30;;;;;;;;;;4974410;28;20556;-83
2022/04/03 03:07:39;;;;;;;14.20;10.33;;;;;;;;;;4985683;28;20557;-83
2022/04/03 03:10:45;;;;;;;12.17;9.00;;;;;;;;;;4974514;28;20640;-83
2022/04/03 03:13:49;;;;;;;14.07;10.40;;;;;;;;;;4985070;28;20558;-84
2022/04/03 03:16:55;;;;;;;13.43;9.50;;;;;;;;;;4985008;28;20545;-82
2022/04/03 03:19:58;;;;;;;13.97;10.13;;;;;;;;;;4984317;28;20632;-82
2022/04/03 03:23:02;;;;;;;13.70;9.77;;;;;;;;;;4995942;28;20561;-83
2022/04/03 03:26:07;;;;;;;16.13;10.27;;;;;;;;;;4984682;28;20550;-83
2022/04/03 03:29:11;;;;;;;13.53;9.87;;;;;;;;;;4995274;28;20608;-83
2022/04/03 03:32:15;;;;;;;14.13;9.90;;;;;;;;;;4973114;28;21109;-84
2022/04/03 03:35:19;;;;;;;12.83;10.03;;;;;;;;;;4973440;28;20541;-84
2022/04/03 03:38:23;;;;;;;12.63;10.40;;;;;;;;;;4983897;28;20604;-84
2022/04/03 03:41:27;;;;;;;14.67;11.10;;;;;;;;;;4984562;28;20999;-83
2022/04/03 03:44:32;;;;;;;14.27;10.47;;;;;;;;;;4983852;28;20553;-83
2022/04/03 03:47:36;;;;;;;15.63;9.97;;;;;;;;;;4983805;28;20571;-84
2022/04/03 03:50:40;;;;;;;15.23;9.90;;;;;;;;;;4972647;28;20656;-83
2022/04/03 03:53:45;;;;;;;13.10;10.43;;;;;;;;;;4972899;28;21088;-84
2022/04/03 03:56:50;;;;;;;12.10;10.37;;;;;;;;;;4983273;28;20550;-84
2022/04/03 03:59:54;;;;;;;16.70;10.93;;;;;;;;;;4993947;28;20600;-83
2022/04/03 04:02:58;;;;;;;15.50;9.97;;;;;;;;;;4983531;28;20612;-83
2022/04/03 04:06:02;;;;;;;14.00;10.13;;;;;;;;;;4972753;28;20601;-83
2022/04/03 04:09:06;;;;;;;14.20;10.10;;;;;;;;;;4973337;28;20793;-84
2022/04/03 04:12:10;;;;;;;15.87;10.23;;;;;;;;;;4983748;28;20545;-84
2022/04/03 04:15:15;;;;;;;14.33;9.87;;;;;;;;;;4983512;28;20544;-83
2022/04/03 04:18:20;;;;;;;15.07;10.27;;;;;;;;;;4994739;28;20609;-83
2022/04/03 04:21:24;;;;;;;14.70;10.87;;;;;;;;;;4972043;28;20629;-83
2022/04/03 04:24:29;;;;;;;14.37;10.13;;;;;;;;;;4983344;28;20548;-83
2022/04/03 04:27:33;;;;;;;14.40;10.27;;;;;;;;;;4973322;28;20569;-83
2022/04/03 04:30:38;;;;;;;12.57;9.63;;;;;;;;;;4984005;28;20623;-83
2022/04/03 04:33:42;;;;;;;12.07;9.50;;;;;;;;;;4983695;28;20593;-82
2022/04/03 04:36:46;;;;;;;13.20;10.40;;;;;;;;;;4983047;28;20597;-82
2022/04/03 04:39:51;;;;;;;13.07;9.70;;;;;;;;;;4982950;28;20553;-84
2022/04/03 04:42:55;;;;;;;14.50;10.07;;;;;;;;;;4985455;28;21001;-83
2022/04/03 04:45:59;;;;;;;12.60;9.10;;;;;;;;;;4983287;28;20549;-84
2022/04/03 04:49:03;;;;;;;13.03;9.73;;;;;;;;;;4975076;28;20598;-83
2022/04/03 04:52:08;;;;;;;15.87;9.97;;;;;;;;;;4986359;28;20534;-84
2022/04/03 04:55:13;;;;;;;12.90;9.93;;;;;;;;;;4973601;28;20546;-84
2022/04/03 04:58:17;;;;;;;11.53;9.67;;;;;;;;;;4994426;28;20601;-83
2022/04/03 05:01:21;;;;;;;11.50;9.60;;;;;;;;;;4972129;28;20621;-85
2022/04/03 05:04:26;;;;;;;16.30;9.90;;;;;;;;;;4984709;28;20541;-83
2022/04/03 05:07:30;;;;;;;11.57;8.67;;;;;;;;;;4996782;28;20558;-83
2022/04/03 05:10:34;;;;;;;13.10;9.67;;;;;;;;;;4987383;28;20613;-83
2022/04/03 05:13:38;;;;;;;13.23;9.33;;;;;;;;;;4975205;28;20557;-82
2022/04/03 05:16:42;;;;;;;12.50;9.43;;;;;;;;;;4987333;28;20542;-83
2022/04/03 05:19:46;;;;;;;12.50;9.23;;;;;;;;;;4998644;28;20882;-84
2022/04/03 05:22:51;;;;;;;12.77;9.07;;;;;;;;;;4975418;28;20553;-84
2022/04/03 05:25:55;;;;;;;13.53;9.90;;;;;;;;;;4975785;28;20541;-82
2022/04/03 05:28:59;;;;;;;12.23;10.03;;;;;;;;;;4986197;28;20605;-84
2022/04/03 05:32:04;;;;;;;14.00;9.87;;;;;;;;;;4975211;28;21095;-83
2022/04/03 05:35:10;;;;;;;12.07;9.77;;;;;;;;;;4975796;28;20538;-84
2022/04/03 05:38:13;;;;;;;12.80;9.53;;;;;;;;;;4997731;28;20550;-82
2022/04/03 05:41:18;;;;;;;14.17;10.53;;;;;;;;;;4986016;28;20620;-84
2022/04/03 05:44:23;;;;;;;12.77;10.27;;;;;;;;;;4987075;28;20913;-84
2022/04/03 05:47:27;;;;;;;13.17;9.60;;;;;;;;;;4987117;28;20542;-83
2022/04/03 05:50:31;;;;;;;12.67;9.87;;;;;;;;;;4986249;28;20665;-82
2022/04/03 05:53:35;;;;;;;13.37;9.40;;;;;;;;;;4985950;28;20561;-82
2022/04/03 05:56:39;;;;;;;13.03;9.17;;;;;;;;;;4997220;28;20601;-84
2022/04/03 05:59:43;;;;;;;14.77;10.37;;;;;;;;;;4985402;28;20901;-84
2022/04/03 06:02:49;;;;;;;12.67;9.70;;;;;;;;;;4975105;28;20537;-82
2022/04/03 06:05:52;;;;;;;13.73;10.10;;;;;;;;;;4974802;28;20542;-83
2022/04/03 06:08:57;;;;;;;13.43;9.63;;;;;;;;;;4974866;28;20593;-82
2022/04/03 06:12:01;;;;;;;11.20;8.77;;;;;;;;;;4974629;28;21179;-84
2022/04/03 06:15:05;;;;;;;12.80;8.53;;;;;;;;;;4997284;28;20541;-83
2022/04/03 06:18:12;;;;;;;12.97;8.53;;;;;;;;;;4985470;28;20533;-84
2022/04/03 06:21:16;;;;;;;10.77;8.10;;;;;;;;;;4985310;28;21183;-84
2022/04/03 06:24:20;;;;;;;11.80;7.87;;;;;;;;;;4997579;28;20538;-83
2022/04/03 06:27:26;;;;;;;10.33;7.63;;;;;;;;;;4975156;28;20870;-83
2022/04/03 06:30:30;;;;;;;11.17;8.57;;;;;;;;;;4986256;28;20665;-83
2022/04/03 06:33:34;;;;;;;12.37;8.80;;;;;;;;;;4996983;28;20542;-83
2022/04/03 06:36:39;;;;;;;10.93;8.07;;;;;;;;;;4985648;28;21112;-83
2022/04/03 06:39:42;;;;;;;11.30;7.30;;;;;;;;;;4984553;28;20546;-85
2022/04/03 06:42:47;;;;;;;11.27;7.60;;;;;;;;;;4974146;28;20546;-83
2022/04/03 06:45:53;;;;;;;12.30;7.50;;;;;;;;;;4985071;28;21072;-83
2022/04/03 06:48:58;;;;;;;13.13;7.30;;;;;;;;;;4985370;28;21129;-83
2022/04/03 06:52:02;;;;;;;11.57;7.40;;;;;;;;;;4974475;28;20633;-85
2022/04/03 06:55:07;;;;;;;10.30;6.97;;;;;;;;;;4973572;28;20538;-85
2022/04/03 06:58:11;;;;;;;8.83;6.83;;;;;;;;;;4995594;28;21088;-84
2022/04/03 07:01:15;;;;;;;10.97;7.03;;;;;;;;;;4973720;28;20612;-84
2022/04/03 07:04:19;;;;;;;7.20;5.83;;;;;;;;;;4974188;28;20542;-83
2022/04/03 07:07:25;;;;;;;10.83;6.60;;;;;;;;;;4995572;28;20557;-84
2022/04/03 07:10:29;;;;;;;12.63;6.83;;;;;;;;;;4973433;28;21005;-83
2022/04/03 07:13:33;;;;;;;8.53;6.70;;;;;;;;;;4984406;28;20558;-84
2022/04/03 07:16:37;;;;;;;11.43;6.90;;;;;;;;;;4995165;28;20542;-84
2022/04/03 07:19:41;;;;;;;9.53;6.23;;;;;;;;;;4973485;28;20596;-83
2022/04/03 07:22:45;;;;;;;9.30;5.80;;;;;;;;;;4973393;28;20601;-84
2022/04/03 07:25:49;;;;;;;9.00;6.47;;;;;;;;;;4973732;28;20878;-85
2022/04/03 07:28:53;;;;;;;6.63;5.07;;;;;;;;;;4983443;28;20562;-86
2022/04/03 07:31:57;;;;;;;8.43;5.43;;;;;;;;;;4995388;28;20633;-84
2022/04/03 07:35:03;;;;;;;7.33;4.77;;;;;;;;;;4995195;28;20550;-84
2022/04/03 07:38:08;;;;;;;7.13;5.13;;;;;;;;;;4972943;28;20542;-84
2022/04/03 07:41:12;;;;;;;6.53;4.80;;;;;;;;;;4995089;28;20612;-85
2022/04/03 07:44:16;;;;;;;6.10;4.50;;;;;;;;;;4972628;28;21112;-86
2022/04/03 07:47:20;;;;;;;5.43;4.63;;;;;;;;;;4984101;28;20538;-84
2022/04/03 07:50:25;;;;;;;7.47;4.53;;;;;;;;;;4971871;28;20665;-85
2022/04/03 07:53:29;;;;;;;5.97;4.20;;;;;;;;;;4983366;28;21084;-85
2022/04/03 07:56:33;;;;;;;4.77;3.60;;;;;;;;;;4983710;28;20537;-84
2022/04/03 07:59:37;;;;;;;6.43;4.50;;;;;;;;;;4972002;28;20557;-84
2022/04/03 08:02:42;;;;;;;5.27;4.43;;;;;;;;;;4972875;28;20542;-84
2022/04/03 08:05:47;;;;;;;5.97;4.43;;;;;;;;;;4972865;28;20597;-85
2022/04/03 08:08:52;;;;;;;5.83;4.63;;;;;;;;;;4982912;28;20561;-84
2022/04/03 08:11:56;;;;;;;4.77;4.00;;;;;;;;;;4971734;28;20954;-85
2022/04/03 08:15:01;;;;;;;7.00;4.77;;;;;;;;;;4983581;28;20549;-84
2022/04/03 08:18:06;;;;;;;6.77;4.80;;;;;;;;;;4972782;28;20542;-84
2022/04/03 08:21:10;;;;;;;5.90;4.73;;;;;;;;;;4994684;28;20612;-84
2022/04/03 08:24:14;;;;;;;8.43;5.30;;;;;;;;;;4983518;28;20550;-85
2022/04/03 08:27:19;;;;;;;5.90;4.50;;;;;;;;;;4972318;28;21076;-84
2022/04/03 08:30:25;;;;;;;10.20;4.80;;;;;;;;;;4971891;28;20664;-83
2022/04/03 08:33:29;;;;;;;6.43;4.27;;;;;;;;;;4982894;28;20550;-84
2022/04/03 08:36:35;;;;;;;9.80;6.57;;;;;;;;;;4971759;28;20553;-86
2022/04/03 08:39:39;;;;;;;5.43;4.27;;;;;;;;;;4982541;28;20593;-85
2022/04/03 08:42:43;;;;;;;8.70;5.17;;;;;;;;;;4972426;28;20592;-84
2022/04/03 08:45:47;;;;;;;6.40;4.57;;;;;;;;;;4971962;28;20545;-84
2022/04/03 08:48:53;;;;;;;6.53;5.80;;;;;;;;;;4972194;28;20542;-84
2022/04/03 08:51:59;;;;;;;5.23;4.17;;;;;;;;;;4971727;28;20629;-83
2022/04/03 08:55:04;;;;;;;8.03;4.33;;;;;;;;;;4983059;28;20541;-84
2022/04/03 08:58:08;;;;;;;15.93;13.97;;;;;;;;;;4983142;28;20554;-84
2022/04/03 09:01:16;;;;;;;11.33;8.47;;;;;;;;;;4982570;28;20214;-84
2022/04/03 09:04:21;;;;;;;5.20;4.70;;;;;;;;;;4971901;28;20178;-84
2022/04/03 09:07:25;;;;;;;7.73;4.80;;;;;;;;;;4993503;28;20542;-84
2022/04/03 09:10:30;;;;;;;6.40;5.10;;;;;;;;;;4971547;28;20230;-84
2022/04/03 09:13:35;;;;;;;6.73;4.13;;;;;;;;;;4983708;28;20179;-83
2022/04/03 09:16:40;;;;;;;5.10;4.60;;;;;;;;;;4983860;28;20198;-83
2022/04/03 09:19:44;;;;;;;11.43;3.97;;;;;;;;;;4971703;28;20665;-84
2022/04/03 09:22:58;;;;;;;9.93;4.40;;;;;;;;;;4971486;28;20198;-83
2022/04/03 09:26:15;;;;;;;4.40;3.70;;;;;;;;;;4971382;28;20186;-81
2022/04/03 09:29:19;;;;;;;6.03;3.53;;;;;;;;;;4993163;28;20182;-83
2022/04/03 09:32:25;;;;;;;4.37;3.47;;;;;;;;;;4982520;28;20174;-83
2022/04/03 09:35:31;;;;;;;3.67;3.20;;;;;;;;;;4982442;28;20191;-84
2022/04/03 09:38:35;;;;;;;5.87;3.53;;;;;;;;;;4981928;28;20187;-84
2022/04/03 09:41:58;;;;;;;3.93;3.47;;;;;;;;;;4981811;28;20684;-84
2022/04/03 09:45:03;;;;;;;3.70;3.30;;;;;;;;;;4971292;28;20186;-84
2022/04/03 09:48:21;;;;;;;5.57;3.77;;;;;;;;;;4982028;28;20182;-84
2022/04/03 09:51:29;;;;;;;6.03;4.63;;;;;;;;;;4983190;28;20234;-85
2022/04/03 09:54:34;;;;;;;4.20;3.30;;;;;;;;;;4970788;28;20537;-85
2022/04/03 09:57:38;;;;;;;5.90;3.80;;;;;;;;;;4972085;28;20178;-85
2022/04/03 10:00:42;;;;;;;6.47;3.87;;;;;;;;;;4973881;28;20210;-85
2022/04/03 10:03:47;;;;;;;5.50;3.60;;;;;;;;;;4974380;28;20182;-85
2022/04/03 10:06:52;;;;;;;4.10;3.37;;;;;;;;;;4974313;28;20186;-84
2022/04/03 10:09:56;;;;;;;4.47;3.57;;;;;;;;;;4996854;28;20226;-84
2022/04/03 10:12:59;;;;;;;5.30;3.70;;;;;;;;;;4973600;28;20202;-86
2022/04/03 10:16:04;;;;;;;4.33;3.40;;;;;;;;;;4985070;28;20178;-85
2022/04/03 10:19:09;;;;;;;4.73;3.53;;;;;;;;;;4973838;28;20549;-86
2022/04/03 10:22:28;;;;;;;2.97;2.67;;;;;;;;;;4974229;28;20174;-86
2022/04/03 10:25:41;;;;;;;5.43;3.47;;;;;;;;;;4973712;28;20194;-86
2022/04/03 10:28:50;;;;;;;4.37;3.33;;;;;;;;;;4973738;28;20175;-85
2022/04/03 10:31:59;;;;;;;6.73;4.67;;;;;;;;;;4973562;28;20222;-85
2022/04/03 10:35:08;;;;;;;7.00;4.47;;;;;;;;;;4984858;28;20187;-85
2022/04/03 10:38:12;;;;;;;4.63;3.57;;;;;;;;;;4973867;28;20182;-85
2022/04/03 10:41:35;;;;;;;6.73;4.00;;;;;;;;;;4973468;28;20214;-85
2022/04/03 10:44:42;;;;;;;8.83;6.50;;;;;;;;;;4974113;28;20182;-85
2022/04/03 10:47:49;;;;;;;5.33;4.27;;;;;;;;;;4973337;28;20179;-84
2022/04/03 10:51:24;;;;;;;4.37;3.10;;;;;;;;;;4984157;28;20229;-84
2022/04/03 10:54:30;;;;;;;3.63;2.77;;;;;;;;;;4973688;28;20186;-88
2022/04/03 10:57:40;;;;;;;5.00;2.97;;;;;;;;;;4984473;28;20202;-87
2022/04/03 11:00:44;;;;;;;4.10;2.67;;;;;;;;;;4972996;28;20210;-90
2022/04/03 11:03:59;;;;;;;3.90;2.27;;;;;;;;;;4983875;28;20202;-88
2022/04/03 11:07:13;;;;;;;3.70;2.60;;;;;;;;;;4995618;28;20178;-86
2022/04/03 11:10:52;;;;;;;2.57;2.23;;;;;;;;;;4983777;28;20230;-86
2022/04/03 11:13:56;;;;;;;4.90;2.33;;;;;;;;;;4972526;28;20665;-86
2022/04/03 11:17:01;;;;;;;4.37;3.13;;;;;;;;;;4973035;28;20182;-85
2022/04/03 11:20:05;;;;;;;5.97;3.10;;;;;;;;;;4983582;28;20217;-86
2022/04/03 11:23:14;;;;;;;3.03;2.57;;;;;;;;;;4994505;28;20202;-86
2022/04/03 11:26:19;;;;;;;3.27;2.37;;;;;;;;;;4983334;28;20199;-86
2022/04/03 11:29:23;;;;;;;3.97;2.70;;;;;;;;;;4972326;28;20201;-86
2022/04/03 11:32:28;;;;;;;4.63;2.70;;;;;;;;;;4972476;28;20182;-86
2022/04/03 11:35:38;;;;;;;4.37;2.60;;;;;;;;;;4972627;28;20178;-86
2022/04/03 11:38:44;;;;;;;2.77;2.53;;;;;;;;;;4983310;28;20187;-86
2022/04/03 11:41:51;;;;;;;2.97;2.67;;;;;;;;;;4972106;28;20214;-86
2022/04/03 11:44:55;;;;;;;3.27;2.70;;;;;;;;;;4994398;28;20182;-86
2022/04/03 11:48:20;;;;;;;5.00;3.23;;;;;;;;;;4983613;28;20614;-86
2022/04/03 11:51:24;;;;;;;3.50;2.87;;;;;;;;;;4971608;28;20230;-86
2022/04/03 11:54:28;;;;;;;5.03;2.77;;;;;;;;;;4983173;28;20546;-88
2022/04/03 11:57:32;;;;;;;5.27;4.77;;;;;;;;;;4983413;28;20541;-88
2022/04/03 12:00:46;;;;;;;3.27;2.87;;;;;;;;;;4971939;28;20681;-89
2022/04/03 12:03:59;;;;;;;4.20;2.83;;;;;;;;;;4972024;28;20194;-89
2022/04/03 12:07:03;;;;;;;3.77;2.90;;;;;;;;;;4972186;28;20541;-88
2022/04/03 12:10:08;;;;;;;6.10;2.87;;;;;;;;;;4971911;28;20573;-88
2022/04/03 12:13:16;;;;;;;4.67;2.80;;;;;;;;;;4972236;28;20186;-88
2022/04/03 12:16:22;;;;;;;6.43;3.30;;;;;;;;;;4972407;28;20198;-89
2022/04/03 12:19:50;;;;;;;11.80;5.77;;;;;;;;;;4971299;28;20202;-89
2022/04/03 12:22:54;;;;;;;9.97;6.93;;;;;;;;;;4971534;28;20527;-88
2022/04/03 12:25:58;;;;;;;13.53;6.80;;;;;;;;;;4971672;28;20182;-88
2022/04/03 12:29:05;;;;;;;4.90;3.50;;;;;;;;;;4971348;28;20186;-88
2022/04/03 12:32:15;;;;;;;4.17;3.33;;;;;;;;;;4982523;28;20206;-88
2022/04/03 12:35:19;;;;;;;4.10;3.50;;;;;;;;;;4993863;28;20545;-88
2022/04/03 12:38:29;;;;;;;7.23;4.50;;;;;;;;;;4971144;28;20182;-88
2022/04/03 12:41:34;;;;;;;7.90;5.70;;;;;;;;;;4971122;28;20302;-88
2022/04/03 12:44:47;;;;;;;6.90;4.63;;;;;;;;;;4993295;28;20186;-89
2022/04/03 12:47:55;;;;;;;6.10;4.83;;;;;;;;;;4971918;28;20174;-90
2022/04/03 12:51:07;;;;;;;3.20;2.20;;;;;;;;;;4972257;28;20234;-85
2022/04/03 12:54:11;;;;;;;15.20;8.70;;;;;;;;;;4971167;28;20196;-85
2022/04/03 13:00:46;;;;;;;4.83;3.07;;;;;;;;;;4982056;28;20217;-85
2022/04/03 13:03:51;;;;;;;4.10;2.63;;;;;;;;;;4971244;28;20186;-85
2022/04/03 13:06:55;;;;;;;2.27;1.97;;;;;;;;;;4982254;28;20174;-85
2022/04/03 13:10:00;;;;;;;2.97;2.23;;;;;;;;;;4971233;28;20222;-85
2022/04/03 13:13:04;;;;;;;7.07;3.20;;;;;;;;;;4971097;28;20175;-85
2022/04/03 13:16:08;;;;;;;5.20;3.40;;;;;;;;;;4982153;28;20186;-85
2022/04/03 13:19:12;;;;;;;8.83;6.87;;;;;;;;;;4982364;28;20178;-85
2022/04/03 13:22:16;;;;;;;5.30;3.97;;;;;;;;;;4970803;28;20183;-85
2022/04/03 13:25:20;;;;;;;5.23;2.87;;;;;;;;;;4971005;28;20178;-85
2022/04/03 13:28:24;;;;;;;4.87;3.73;;;;;;;;;;4981908;28;20522;-85
2022/04/03 13:31:30;;;;;;;4.43;2.90;;;;;;;;;;4994021;28;20225;-85
2022/04/03 13:34:34;;;;;;;5.00;3.00;;;;;;;;;;4974960;28;20182;-85
2022/04/03 13:37:38;;;;;;;5.63;3.50;;;;;;;;;;4974649;28;20629;-85
2022/04/03 13:40:43;;;;;;;3.73;3.43;;;;;;;;;;4985213;28;20226;-85
2022/04/03 13:43:47;;;;;;;3.47;2.90;;;;;;;;;;4974455;28;20202;-85
2022/04/03 13:46:52;;;;;;;5.37;3.07;;;;;;;;;;4985470;28;20198;-85
2022/04/03 13:49:56;;;;;;;3.37;3.00;;;;;;;;;;4974456;28;20511;-85
2022/04/03 13:53:00;;;;;;;4.77;3.97;;;;;;;;;;4974256;28;20210;-85
2022/04/03 13:56:05;;;;;;;5.03;3.80;;;;;;;;;;4985364;28;20182;-85
2022/04/03 13:59:10;;;;;;;5.40;4.37;;;;;;;;;;4974322;28;20553;-85
2022/04/03 14:02:15;;;;;;;4.80;3.20;;;;;;;;;;4985305;28;20538;-85
2022/04/03 14:05:19;;;;;;;3.67;3.30;;;;;;;;;;4974501;28;20178;-85
2022/04/03 14:08:24;;;;;;;4.73;4.07;;;;;;;;;;4974300;28;20180;-85
2022/04/03 14:11:28;;;;;;;6.47;4.50;;;;;;;;;;4984876;28;20225;-85
2022/04/03 14:14:32;;;;;;;3.70;3.30;;;;;;;;;;4995989;28;20182;-85
2022/04/03 14:17:37;;;;;;;5.07;3.30;;;;;;;;;;4985238;28;20182;-85
2022/04/03 14:20:42;;;;;;;4.47;3.20;;;;;;;;;;4973791;28;20222;-85
2022/04/03 14:23:46;;;;;;;4.13;3.63;;;;;;;;;;4984652;28;20593;-85
2022/04/03 14:26:50;;;;;;;4.37;3.27;;;;;;;;;;4985033;28;20605;-85
2022/04/03 14:29:56;;;;;;;3.80;3.23;;;;;;;;;;4984381;28;20198;-85
2022/04/03 14:32:59;;;;;;;3.97;3.30;;;;;;;;;;4984653;28;20543;-85
2022/04/03 14:36:04;;;;;;;4.67;3.07;;;;;;;;;;4984967;28;20178;-85
2022/04/03 14:39:08;;;;;;;3.63;3.17;;;;;;;;;;4984285;28;20178;-86
2022/04/03 14:42:12;;;;;;;3.40;2.90;;;;;;;;;;4984527;28;20585;-86
2022/04/03 14:45:16;;;;;;;4.93;3.20;;;;;;;;;;4973669;28;20182;-87
2022/04/03 14:48:20;;;;;;;4.13;3.13;;;;;;;;;;4995595;28;20647;-87
2022/04/03 14:51:25;;;;;;;3.80;2.90;;;;;;;;;;4972732;28;20233;-87
2022/04/03 14:54:29;;;;;;;3.43;3.13;;;;;;;;;;4984257;28;20203;-87
2022/04/03 14:57:34;;;;;;;4.13;3.33;;;;;;;;;;4984694;28;20194;-85
2022/04/03 15:00:38;;;;;;;4.13;3.63;;;;;;;;;;4973159;28;20549;-88
2022/04/03 15:03:42;;;;;;;3.40;3.07;;;;;;;;;;4984504;28;20179;-88
2022/04/03 15:06:47;;;;;;;4.73;3.23;;;;;;;;;;4973006;28;20186;-88
2022/04/03 15:09:51;;;;;;;3.47;2.90;;;;;;;;;;4984003;28;20182;-88
2022/04/03 15:12:55;;;;;;;4.47;3.73;;;;;;;;;;4974529;28;20206;-88
2022/04/03 15:16:00;;;;;;;5.33;3.23;;;;;;;;;;4984260;28;20194;-87
2022/04/03 15:19:04;;;;;;;4.30;3.17;;;;;;;;;;4973243;28;20186;-87
2022/04/03 15:22:08;;;;;;;5.93;3.40;;;;;;;;;;4983881;28;20625;-88
2022/04/03 15:25:13;;;;;;;5.27;4.47;;;;;;;;;;4994921;28;20198;-88
2022/04/03 15:28:17;;;;;;;4.53;3.90;;;;;;;;;;4972475;28;20178;-88
2022/04/03 15:31:21;;;;;;;6.83;3.40;;;;;;;;;;4972543;28;20221;-89
2022/04/03 15:34:26;;;;;;;5.20;4.03;;;;;;;;;;4972573;28;20174;-88
2022/04/03 15:37:32;;;;;;;4.00;3.60;;;;;;;;;;4972401;28;20198;-88
2022/04/03 15:40:36;;;;;;;4.40;3.40;;;;;;;;;;4983716;28;20218;-88
2022/04/03 15:43:40;;;;;;;3.97;3.23;;;;;;;;;;4972251;28;20178;-88
2022/04/03 15:46:44;;;;;;;4.43;2.83;;;;;;;;;;4972616;28;20622;-88
2022/04/03 15:49:49;;;;;;;3.73;2.80;;;;;;;;;;4972140;28;20605;-88
2022/04/03 15:52:53;;;;;;;3.80;2.80;;;;;;;;;;4982773;28;20206;-86
2022/04/03 15:55:56;;;;;;;3.13;2.83;;;;;;;;;;4971392;28;20178;-86
2022/04/03 15:59:01;;;;;;;5.60;2.87;;;;;;;;;;4994288;28;20178;-85
2022/04/03 16:02:05;;;;;;;4.60;3.37;;;;;;;;;;4971910;28;20182;-84
2022/04/03 16:05:10;;;;;;;4.20;2.70;;;;;;;;;;4985164;28;20182;-84
2022/04/03 16:08:14;;;;;;;4.17;2.80;;;;;;;;;;4972404;28;20186;-84
2022/04/03 16:11:18;;;;;;;3.60;3.00;;;;;;;;;;4984248;28;20631;-85
2022/04/03 16:14:22;;;;;;;4.17;2.90;;;;;;;;;;4982420;28;20201;-85
2022/04/03 16:17:26;;;;;;;3.20;2.90;;;;;;;;;;4982687;28;20182;-85
2022/04/03 16:20:30;;;;;;;4.40;3.67;;;;;;;;;;4971671;28;20616;-85
2022/04/03 16:23:34;;;;;;;10.20;7.90;;;;;;;;;;4982935;28;20534;-85
2022/04/03 16:26:39;;;;;;;11.43;7.27;;;;;;;;;;4971078;28;20613;-85
2022/04/03 16:29:44;;;;;;;7.37;6.73;;;;;;;;;;4971125;28;20593;-85
2022/04/03 16:32:49;;;;;;;5.07;3.97;;;;;;;;;;4971552;28;20597;-84
2022/04/03 16:35:53;;;;;;;5.93;3.10;;;;;;;;;;4982652;28;20542;-85
2022/04/03 16:38:57;;;;;;;6.63;2.70;;;;;;;;;;4971288;28;20538;-84
2022/04/03 16:42:01;;;;;;;4.10;2.77;;;;;;;;;;4982243;28;20620;-85
2022/04/03 16:45:06;;;;;;;3.13;2.70;;;;;;;;;;4993313;28;20550;-84
2022/04/03 16:48:10;;;;;;;4.87;2.73;;;;;;;;;;4987724;28;20178;-84
2022/04/03 16:51:14;;;;;;;4.57;2.80;;;;;;;;;;4982040;28;20644;-84
2022/04/03 16:54:18;;;;;;;4.67;2.70;;;;;;;;;;4982789;28;20534;-84
2022/04/03 16:57:22;;;;;;;4.93;3.00;;;;;;;;;;4993672;28;20545;-84
2022/04/03 17:00:27;;;;;;;5.60;2.93;;;;;;;;;;4982028;28;20969;-84
2022/04/03 17:03:31;;;;;;;5.27;3.77;;;;;;;;;;4971347;28;20534;-84
2022/04/03 17:06:36;;;;;;;3.90;3.00;;;;;;;;;;4983341;28;20597;-84
2022/04/03 17:09:40;;;;;;;5.83;3.73;;;;;;;;;;4996973;28;20961;-84
2022/04/03 17:12:44;;;;;;;4.10;3.03;;;;;;;;;;4986542;28;21132;-84
2022/04/03 17:15:48;;;;;;;4.90;3.50;;;;;;;;;;4991692;28;20612;-85
2022/04/03 17:18:53;;;;;;;4.00;3.53;;;;;;;;;;5004342;28;20627;-86
2022/04/03 17:21:58;;;;;;;5.17;3.50;;;;;;;;;;5004048;28;20628;-84
2022/04/03 17:25:04;;;;;;;3.80;2.90;;;;;;;;;;5004976;28;20944;-84
2022/04/03 17:28:08;;;;;;;3.53;2.97;;;;;;;;;;4994100;28;21087;-85
2022/04/03 17:31:12;;;;;;;3.83;2.83;;;;;;;;;;5005244;28;20620;-84
2022/04/03 17:34:16;;;;;;;5.80;3.67;;;;;;;;;;5005234;28;20533;-85
2022/04/03 17:37:20;;;;;;;6.20;3.40;;;;;;;;;;5005182;28;20536;-84
2022/04/03 17:40:24;;;;;;;4.70;3.40;;;;;;;;;;5005485;28;20619;-84
2022/04/03 17:43:31;;;;;;;3.63;3.03;;;;;;;;;;5005162;28;20556;-85
2022/04/03 17:46:38;;;;;;;4.33;3.00;;;;;;;;;;5005229;28;20659;-84
2022/04/03 17:49:42;;;;;;;3.77;3.00;;;;;;;;;;5005025;28;20532;-84
2022/04/03 17:52:46;;;;;;;4.67;3.50;;;;;;;;;;4994051;28;20588;-84
2022/04/03 17:55:51;;;;;;;4.87;3.73;;;;;;;;;;5004815;28;20545;-84
2022/04/03 17:58:55;;;;;;;4.83;3.37;;;;;;;;;;5006026;28;20537;-84
2022/04/03 18:02:01;;;;;;;4.17;3.20;;;;;;;;;;5019970;28;20623;-86
2022/04/03 18:05:06;;;;;;;4.53;3.30;;;;;;;;;;5004908;28;20544;-86
2022/04/03 18:08:15;;;;;;;4.60;3.37;;;;;;;;;;4993133;28;20600;-86
2022/04/03 18:11:19;;;;;;;4.10;3.53;;;;;;;;;;5004311;28;20616;-86
2022/04/03 18:14:23;;;;;;;7.13;5.00;;;;;;;;;;5003951;28;20659;-86
2022/04/03 18:17:28;;;;;;;5.33;3.90;;;;;;;;;;5003345;28;20596;-86
2022/04/03 18:20:32;;;;;;;4.20;3.33;;;;;;;;;;5015682;28;20636;-86
2022/04/03 18:23:37;;;;;;;8.00;3.47;;;;;;;;;;4993044;28;20552;-86